sensor_id;sensor_type;location;lat;lon;timestamp;P1;durP1;ratioP1;P2;durP2;ratioP2
81697;SDS011;71109;52.514;5.708;2024-03-08T00:00:50;49.65;;;18.73;;
81697;SDS011;71109;52.514;5.708;2024-03-08T00:03:16;57.95;;;18.48;;
81697;SDS011;71109;52.514;5.708;2024-03-08T00:05:41;53.03;;;19.00;;
81697;SDS011;71109;52.514;5.708;2024-03-08T00:08:07;50.80;;;19.33;;
81697;SDS011;71109;52.514;5.708;2024-03-08T00:10:34;42.95;;;17.02;;
81697;SDS011;71109;52.514;5.708;2024-03-08T00:13:00;46.97;;;17.63;;
81697;SDS011;71109;52.514;5.708;2024-03-08T00:15:25;38.78;;;14.88;;
81697;SDS011;71109;52.514;5.708;2024-03-08T00:17:51;44.17;;;16.80;;
81697;SDS011;71109;52.514;5.708;2024-03-08T00:20:16;50.23;;;17.93;;
81697;SDS011;71109;52.514;5.708;2024-03-08T00:22:43;44.50;;;17.25;;
81697;SDS011;71109;52.514;5.708;2024-03-08T00:25:08;37.53;;;14.23;;
81697;SDS011;71109;52.514;5.708;2024-03-08T00:27:34;53.70;;;18.30;;
81697;SDS011;71109;52.514;5.708;2024-03-08T00:29:59;44.92;;;17.67;;
81697;SDS011;71109;52.514;5.708;2024-03-08T00:32:25;42.70;;;17.13;;
81697;SDS011;71109;52.514;5.708;2024-03-08T00:34:52;42.40;;;15.70;;
81697;SDS011;71109;52.514;5.708;2024-03-08T00:37:18;60.90;;;18.92;;
81697;SDS011;71109;52.514;5.708;2024-03-08T00:39:43;47.83;;;18.50;;
81697;SDS011;71109;52.514;5.708;2024-03-08T00:42:08;42.08;;;17.75;;
81697;SDS011;71109;52.514;5.708;2024-03-08T00:44:34;45.92;;;17.40;;
81697;SDS011;71109;52.514;5.708;2024-03-08T00:46:59;50.53;;;19.85;;
81697;SDS011;71109;52.514;5.708;2024-03-08T00:49:24;63.10;;;18.57;;
81697;SDS011;71109;52.514;5.708;2024-03-08T00:51:50;48.67;;;18.40;;
81697;SDS011;71109;52.514;5.708;2024-03-08T00:54:15;37.90;;;15.45;;
81697;SDS011;71109;52.514;5.708;2024-03-08T00:56:41;49.97;;;16.75;;
81697;SDS011;71109;52.514;5.708;2024-03-08T00:59:07;53.63;;;17.33;;
81697;SDS011;71109;52.514;5.708;2024-03-08T01:01:32;50.65;;;16.88;;
81697;SDS011;71109;52.514;5.708;2024-03-08T01:03:57;52.20;;;19.88;;
81697;SDS011;71109;52.514;5.708;2024-03-08T01:06:23;45.33;;;18.00;;
81697;SDS011;71109;52.514;5.708;2024-03-08T01:08:49;45.83;;;17.67;;
81697;SDS011;71109;52.514;5.708;2024-03-08T01:11:16;43.20;;;16.30;;
81697;SDS011;71109;52.514;5.708;2024-03-08T01:13:43;51.30;;;15.93;;
81697;SDS011;71109;52.514;5.708;2024-03-08T01:16:08;56.22;;;18.55;;
81697;SDS011;71109;52.514;5.708;2024-03-08T01:18:33;49.03;;;18.60;;
81697;SDS011;71109;52.514;5.708;2024-03-08T01:20:59;58.35;;;18.70;;
81697;SDS011;71109;52.514;5.708;2024-03-08T01:23:24;46.93;;;16.30;;
81697;SDS011;71109;52.514;5.708;2024-03-08T01:25:49;52.85;;;19.08;;
81697;SDS011;71109;52.514;5.708;2024-03-08T01:30:46;46.60;;;16.40;;
81697;SDS011;71109;52.514;5.708;2024-03-08T01:33:12;48.22;;;17.17;;
81697;SDS011;71109;52.514;5.708;2024-03-08T01:35:37;41.90;;;17.45;;
81697;SDS011;71109;52.514;5.708;2024-03-08T01:38:06;44.65;;;17.50;;
81697;SDS011;71109;52.514;5.708;2024-03-08T01:40:31;42.55;;;16.88;;
81697;SDS011;71109;52.514;5.708;2024-03-08T01:42:57;54.93;;;18.80;;
81697;SDS011;71109;52.514;5.708;2024-03-08T01:45:22;46.43;;;19.13;;
81697;SDS011;71109;52.514;5.708;2024-03-08T01:47:47;45.97;;;18.75;;
81697;SDS011;71109;52.514;5.708;2024-03-08T01:50:13;52.40;;;19.23;;
81697;SDS011;71109;52.514;5.708;2024-03-08T01:52:38;56.30;;;18.75;;
81697;SDS011;71109;52.514;5.708;2024-03-08T01:55:04;45.78;;;16.15;;
81697;SDS011;71109;52.514;5.708;2024-03-08T01:57:32;45.20;;;15.95;;
81697;SDS011;71109;52.514;5.708;2024-03-08T02:00:02;51.28;;;19.52;;
81697;SDS011;71109;52.514;5.708;2024-03-08T02:02:32;49.58;;;17.60;;
81697;SDS011;71109;52.514;5.708;2024-03-08T02:04:57;52.45;;;18.30;;
81697;SDS011;71109;52.514;5.708;2024-03-08T02:07:23;52.50;;;17.83;;
81697;SDS011;71109;52.514;5.708;2024-03-08T02:09:48;49.50;;;19.93;;
81697;SDS011;71109;52.514;5.708;2024-03-08T02:12:13;54.20;;;19.17;;
81697;SDS011;71109;52.514;5.708;2024-03-08T02:14:39;44.60;;;15.95;;
81697;SDS011;71109;52.514;5.708;2024-03-08T02:17:05;45.95;;;17.00;;
81697;SDS011;71109;52.514;5.708;2024-03-08T02:19:30;52.95;;;15.82;;
81697;SDS011;71109;52.514;5.708;2024-03-08T02:21:55;64.38;;;18.77;;
81697;SDS011;71109;52.514;5.708;2024-03-08T02:24:21;42.78;;;17.95;;
81697;SDS011;71109;52.514;5.708;2024-03-08T02:26:48;43.83;;;17.85;;
81697;SDS011;71109;52.514;5.708;2024-03-08T02:29:13;50.40;;;16.37;;
81697;SDS011;71109;52.514;5.708;2024-03-08T02:31:39;44.30;;;20.42;;
81697;SDS011;71109;52.514;5.708;2024-03-08T02:34:05;43.77;;;17.07;;
81697;SDS011;71109;52.514;5.708;2024-03-08T02:36:30;51.43;;;19.03;;
81697;SDS011;71109;52.514;5.708;2024-03-08T02:38:59;47.15;;;17.52;;
81697;SDS011;71109;52.514;5.708;2024-03-08T02:41:26;50.25;;;17.23;;
81697;SDS011;71109;52.514;5.708;2024-03-08T02:43:51;57.80;;;19.27;;
81697;SDS011;71109;52.514;5.708;2024-03-08T02:46:16;47.23;;;19.17;;
81697;SDS011;71109;52.514;5.708;2024-03-08T02:48:42;59.03;;;21.00;;
81697;SDS011;71109;52.514;5.708;2024-03-08T02:51:07;52.47;;;19.63;;
81697;SDS011;71109;52.514;5.708;2024-03-08T02:53:32;51.40;;;16.77;;
81697;SDS011;71109;52.514;5.708;2024-03-08T02:55:58;46.40;;;17.63;;
81697;SDS011;71109;52.514;5.708;2024-03-08T02:58:23;53.15;;;19.70;;
81697;SDS011;71109;52.514;5.708;2024-03-08T03:00:48;47.77;;;18.20;;
81697;SDS011;71109;52.514;5.708;2024-03-08T03:03:14;52.63;;;19.48;;
81697;SDS011;71109;52.514;5.708;2024-03-08T03:05:40;54.90;;;18.90;;
81697;SDS011;71109;52.514;5.708;2024-03-08T03:08:06;44.90;;;20.23;;
81697;SDS011;71109;52.514;5.708;2024-03-08T03:10:34;50.95;;;18.23;;
81697;SDS011;71109;52.514;5.708;2024-03-08T03:13:00;44.60;;;18.88;;
81697;SDS011;71109;52.514;5.708;2024-03-08T03:15:25;50.88;;;18.98;;
81697;SDS011;71109;52.514;5.708;2024-03-08T03:17:50;54.47;;;19.50;;
81697;SDS011;71109;52.514;5.708;2024-03-08T03:20:16;52.72;;;20.45;;
81697;SDS011;71109;52.514;5.708;2024-03-08T03:22:48;56.92;;;18.80;;
81697;SDS011;71109;52.514;5.708;2024-03-08T03:25:17;50.92;;;17.95;;
81697;SDS011;71109;52.514;5.708;2024-03-08T03:27:50;47.60;;;18.33;;
81697;SDS011;71109;52.514;5.708;2024-03-08T03:30:15;58.90;;;19.60;;
81697;SDS011;71109;52.514;5.708;2024-03-08T03:32:50;51.78;;;18.70;;
81697;SDS011;71109;52.514;5.708;2024-03-08T03:35:16;53.03;;;20.92;;
81697;SDS011;71109;52.514;5.708;2024-03-08T03:37:42;49.80;;;19.10;;
81697;SDS011;71109;52.514;5.708;2024-03-08T03:40:10;47.22;;;19.35;;
81697;SDS011;71109;52.514;5.708;2024-03-08T03:42:36;41.63;;;17.48;;
81697;SDS011;71109;52.514;5.708;2024-03-08T03:45:04;45.30;;;16.80;;
81697;SDS011;71109;52.514;5.708;2024-03-08T03:47:30;51.97;;;18.60;;
81697;SDS011;71109;52.514;5.708;2024-03-08T03:49:56;50.27;;;18.67;;
81697;SDS011;71109;52.514;5.708;2024-03-08T03:52:26;48.03;;;19.38;;
81697;SDS011;71109;52.514;5.708;2024-03-08T03:54:52;48.23;;;15.70;;
81697;SDS011;71109;52.514;5.708;2024-03-08T03:57:17;51.13;;;19.15;;
81697;SDS011;71109;52.514;5.708;2024-03-08T03:59:43;45.17;;;16.60;;
81697;SDS011;71109;52.514;5.708;2024-03-08T04:02:09;41.47;;;15.17;;
81697;SDS011;71109;52.514;5.708;2024-03-08T04:04:34;66.45;;;22.52;;
81697;SDS011;71109;52.514;5.708;2024-03-08T04:07:00;54.97;;;19.63;;
81697;SDS011;71109;52.514;5.708;2024-03-08T04:09:27;46.33;;;18.60;;
81697;SDS011;71109;52.514;5.708;2024-03-08T04:11:52;53.77;;;21.60;;
81697;SDS011;71109;52.514;5.708;2024-03-08T04:14:20;54.92;;;20.95;;
81697;SDS011;71109;52.514;5.708;2024-03-08T04:16:46;45.50;;;18.05;;
81697;SDS011;71109;52.514;5.708;2024-03-08T04:19:13;45.85;;;18.05;;
81697;SDS011;71109;52.514;5.708;2024-03-08T04:21:38;49.75;;;20.30;;
81697;SDS011;71109;52.514;5.708;2024-03-08T04:24:04;50.53;;;19.77;;
81697;SDS011;71109;52.514;5.708;2024-03-08T04:26:30;43.83;;;17.83;;
81697;SDS011;71109;52.514;5.708;2024-03-08T04:28:56;55.88;;;21.45;;
81697;SDS011;71109;52.514;5.708;2024-03-08T04:31:22;59.80;;;20.52;;
81697;SDS011;71109;52.514;5.708;2024-03-08T04:33:47;47.45;;;19.17;;
81697;SDS011;71109;52.514;5.708;2024-03-08T04:36:13;51.72;;;18.25;;
81697;SDS011;71109;52.514;5.708;2024-03-08T04:38:38;57.03;;;20.10;;
81697;SDS011;71109;52.514;5.708;2024-03-08T04:41:05;56.30;;;20.95;;
81697;SDS011;71109;52.514;5.708;2024-03-08T04:43:31;66.50;;;21.40;;
81697;SDS011;71109;52.514;5.708;2024-03-08T04:45:56;48.33;;;18.80;;
81697;SDS011;71109;52.514;5.708;2024-03-08T04:48:22;55.78;;;21.08;;
81697;SDS011;71109;52.514;5.708;2024-03-08T04:50:47;46.75;;;19.63;;
81697;SDS011;71109;52.514;5.708;2024-03-08T04:53:13;53.97;;;20.95;;
81697;SDS011;71109;52.514;5.708;2024-03-08T04:55:38;57.33;;;21.15;;
81697;SDS011;71109;52.514;5.708;2024-03-08T04:58:04;63.70;;;20.70;;
81697;SDS011;71109;52.514;5.708;2024-03-08T05:00:31;53.92;;;21.42;;
81697;SDS011;71109;52.514;5.708;2024-03-08T05:02:57;57.10;;;20.80;;
81697;SDS011;71109;52.514;5.708;2024-03-08T05:05:23;66.57;;;21.52;;
81697;SDS011;71109;52.514;5.708;2024-03-08T05:07:48;50.63;;;18.33;;
81697;SDS011;71109;52.514;5.708;2024-03-08T05:10:14;49.60;;;19.27;;
81697;SDS011;71109;52.514;5.708;2024-03-08T05:12:42;52.22;;;20.90;;
81697;SDS011;71109;52.514;5.708;2024-03-08T05:15:10;55.97;;;21.88;;
81697;SDS011;71109;52.514;5.708;2024-03-08T05:17:36;52.60;;;21.03;;
81697;SDS011;71109;52.514;5.708;2024-03-08T05:20:01;48.28;;;19.88;;
81697;SDS011;71109;52.514;5.708;2024-03-08T05:22:27;54.70;;;22.55;;
81697;SDS011;71109;52.514;5.708;2024-03-08T05:24:53;52.08;;;22.08;;
81697;SDS011;71109;52.514;5.708;2024-03-08T05:27:18;63.35;;;20.23;;
81697;SDS011;71109;52.514;5.708;2024-03-08T05:29:43;52.13;;;21.00;;
81697;SDS011;71109;52.514;5.708;2024-03-08T05:32:09;56.40;;;22.25;;
81697;SDS011;71109;52.514;5.708;2024-03-08T05:34:35;55.17;;;21.05;;
81697;SDS011;71109;52.514;5.708;2024-03-08T05:37:00;60.85;;;22.45;;
81697;SDS011;71109;52.514;5.708;2024-03-08T05:39:26;55.42;;;21.75;;
81697;SDS011;71109;52.514;5.708;2024-03-08T05:41:51;59.00;;;21.33;;
81697;SDS011;71109;52.514;5.708;2024-03-08T05:44:17;52.65;;;20.75;;
81697;SDS011;71109;52.514;5.708;2024-03-08T05:46:43;55.28;;;22.70;;
81697;SDS011;71109;52.514;5.708;2024-03-08T05:49:08;57.13;;;23.03;;
81697;SDS011;71109;52.514;5.708;2024-03-08T05:51:35;58.58;;;22.67;;
81697;SDS011;71109;52.514;5.708;2024-03-08T05:54:01;62.88;;;24.00;;
81697;SDS011;71109;52.514;5.708;2024-03-08T05:56:28;58.85;;;23.40;;
81697;SDS011;71109;52.514;5.708;2024-03-08T05:58:54;66.13;;;24.10;;
81697;SDS011;71109;52.514;5.708;2024-03-08T06:01:20;53.65;;;21.42;;
81697;SDS011;71109;52.514;5.708;2024-03-08T06:03:45;58.97;;;22.92;;
81697;SDS011;71109;52.514;5.708;2024-03-08T06:06:12;55.63;;;21.63;;
81697;SDS011;71109;52.514;5.708;2024-03-08T06:08:38;53.72;;;21.00;;
81697;SDS011;71109;52.514;5.708;2024-03-08T06:11:03;58.25;;;22.58;;
81697;SDS011;71109;52.514;5.708;2024-03-08T06:13:29;57.42;;;21.48;;
81697;SDS011;71109;52.514;5.708;2024-03-08T06:15:56;52.03;;;23.33;;
81697;SDS011;71109;52.514;5.708;2024-03-08T06:18:21;54.42;;;21.35;;
81697;SDS011;71109;52.514;5.708;2024-03-08T06:20:47;52.77;;;19.53;;
81697;SDS011;71109;52.514;5.708;2024-03-08T06:23:12;57.63;;;23.73;;
81697;SDS011;71109;52.514;5.708;2024-03-08T06:25:37;47.42;;;20.30;;
81697;SDS011;71109;52.514;5.708;2024-03-08T06:28:03;57.45;;;21.33;;
81697;SDS011;71109;52.514;5.708;2024-03-08T06:30:28;58.00;;;20.98;;
81697;SDS011;71109;52.514;5.708;2024-03-08T06:32:54;52.53;;;22.97;;
81697;SDS011;71109;52.514;5.708;2024-03-08T06:35:19;57.53;;;23.00;;
81697;SDS011;71109;52.514;5.708;2024-03-08T06:37:45;55.75;;;23.02;;
81697;SDS011;71109;52.514;5.708;2024-03-08T06:40:11;62.28;;;23.85;;
81697;SDS011;71109;52.514;5.708;2024-03-08T06:42:39;60.22;;;22.90;;
81697;SDS011;71109;52.514;5.708;2024-03-08T06:45:05;63.10;;;24.15;;
81697;SDS011;71109;52.514;5.708;2024-03-08T06:47:31;62.40;;;24.50;;
81697;SDS011;71109;52.514;5.708;2024-03-08T06:49:57;57.53;;;22.88;;
81697;SDS011;71109;52.514;5.708;2024-03-08T06:52:22;54.53;;;21.08;;
81697;SDS011;71109;52.514;5.708;2024-03-08T06:54:48;58.92;;;21.55;;
81697;SDS011;71109;52.514;5.708;2024-03-08T06:57:14;58.33;;;21.77;;
81697;SDS011;71109;52.514;5.708;2024-03-08T06:59:39;56.28;;;23.15;;
81697;SDS011;71109;52.514;5.708;2024-03-08T07:02:04;44.67;;;19.88;;
81697;SDS011;71109;52.514;5.708;2024-03-08T07:04:30;62.42;;;22.30;;
81697;SDS011;71109;52.514;5.708;2024-03-08T07:06:56;59.00;;;23.08;;
81697;SDS011;71109;52.514;5.708;2024-03-08T07:09:22;59.67;;;20.40;;
81697;SDS011;71109;52.514;5.708;2024-03-08T07:11:49;50.25;;;20.05;;
81697;SDS011;71109;52.514;5.708;2024-03-08T07:14:19;57.08;;;22.45;;
81697;SDS011;71109;52.514;5.708;2024-03-08T07:16:46;50.90;;;19.13;;
81697;SDS011;71109;52.514;5.708;2024-03-08T07:19:12;62.90;;;23.92;;
81697;SDS011;71109;52.514;5.708;2024-03-08T07:21:37;57.20;;;22.33;;
81697;SDS011;71109;52.514;5.708;2024-03-08T07:24:03;57.55;;;22.27;;
81697;SDS011;71109;52.514;5.708;2024-03-08T07:26:43;52.38;;;21.35;;
81697;SDS011;71109;52.514;5.708;2024-03-08T07:29:09;50.63;;;21.17;;
81697;SDS011;71109;52.514;5.708;2024-03-08T07:31:34;53.90;;;21.08;;
81697;SDS011;71109;52.514;5.708;2024-03-08T07:34:02;53.38;;;22.08;;
81697;SDS011;71109;52.514;5.708;2024-03-08T07:36:28;64.15;;;23.70;;
81697;SDS011;71109;52.514;5.708;2024-03-08T07:38:53;58.22;;;23.75;;
81697;SDS011;71109;52.514;5.708;2024-03-08T07:41:19;57.47;;;22.20;;
81697;SDS011;71109;52.514;5.708;2024-03-08T07:43:45;53.28;;;22.30;;
81697;SDS011;71109;52.514;5.708;2024-03-08T07:46:10;53.13;;;21.70;;
81697;SDS011;71109;52.514;5.708;2024-03-08T07:48:36;49.08;;;20.88;;
81697;SDS011;71109;52.514;5.708;2024-03-08T07:51:01;56.03;;;22.17;;
81697;SDS011;71109;52.514;5.708;2024-03-08T07:53:28;52.78;;;19.73;;
81697;SDS011;71109;52.514;5.708;2024-03-08T07:55:53;54.35;;;22.67;;
81697;SDS011;71109;52.514;5.708;2024-03-08T07:58:19;47.42;;;21.20;;
81697;SDS011;71109;52.514;5.708;2024-03-08T08:00:44;49.25;;;21.95;;
81697;SDS011;71109;52.514;5.708;2024-03-08T08:03:09;60.10;;;23.23;;
81697;SDS011;71109;52.514;5.708;2024-03-08T08:05:35;60.67;;;22.50;;
81697;SDS011;71109;52.514;5.708;2024-03-08T08:08:02;53.80;;;21.35;;
81697;SDS011;71109;52.514;5.708;2024-03-08T08:10:31;60.63;;;23.48;;
81697;SDS011;71109;52.514;5.708;2024-03-08T08:12:57;54.30;;;22.02;;
81697;SDS011;71109;52.514;5.708;2024-03-08T08:15:23;53.20;;;21.10;;
81697;SDS011;71109;52.514;5.708;2024-03-08T08:17:48;53.08;;;20.80;;
81697;SDS011;71109;52.514;5.708;2024-03-08T08:20:14;52.13;;;21.95;;
81697;SDS011;71109;52.514;5.708;2024-03-08T08:22:40;53.85;;;21.67;;
81697;SDS011;71109;52.514;5.708;2024-03-08T08:25:06;57.95;;;21.20;;
81697;SDS011;71109;52.514;5.708;2024-03-08T08:27:32;56.33;;;20.98;;
81697;SDS011;71109;52.514;5.708;2024-03-08T08:29:58;61.20;;;21.98;;
81697;SDS011;71109;52.514;5.708;2024-03-08T08:32:23;46.70;;;19.53;;
81697;SDS011;71109;52.514;5.708;2024-03-08T08:34:48;53.92;;;20.05;;
81697;SDS011;71109;52.514;5.708;2024-03-08T08:37:14;45.03;;;19.53;;
81697;SDS011;71109;52.514;5.708;2024-03-08T08:39:39;54.83;;;21.17;;
81697;SDS011;71109;52.514;5.708;2024-03-08T08:42:04;44.38;;;17.77;;
81697;SDS011;71109;52.514;5.708;2024-03-08T08:44:30;49.03;;;20.02;;
81697;SDS011;71109;52.514;5.708;2024-03-08T08:46:56;47.42;;;19.98;;
81697;SDS011;71109;52.514;5.708;2024-03-08T08:49:22;56.70;;;22.70;;
81697;SDS011;71109;52.514;5.708;2024-03-08T08:51:52;49.90;;;19.67;;
81697;SDS011;71109;52.514;5.708;2024-03-08T08:54:17;49.65;;;21.98;;
81697;SDS011;71109;52.514;5.708;2024-03-08T08:56:43;51.38;;;21.70;;
81697;SDS011;71109;52.514;5.708;2024-03-08T08:59:09;49.50;;;20.98;;
81697;SDS011;71109;52.514;5.708;2024-03-08T09:01:35;54.35;;;21.83;;
81697;SDS011;71109;52.514;5.708;2024-03-08T09:04:00;44.83;;;20.75;;
81697;SDS011;71109;52.514;5.708;2024-03-08T09:06:25;48.30;;;20.38;;
81697;SDS011;71109;52.514;5.708;2024-03-08T09:08:51;42.60;;;19.45;;
81697;SDS011;71109;52.514;5.708;2024-03-08T09:11:16;58.70;;;22.42;;
81697;SDS011;71109;52.514;5.708;2024-03-08T09:13:44;50.65;;;20.98;;
81697;SDS011;71109;52.514;5.708;2024-03-08T09:16:10;53.50;;;23.08;;
81697;SDS011;71109;52.514;5.708;2024-03-08T09:18:36;53.67;;;22.17;;
81697;SDS011;71109;52.514;5.708;2024-03-08T09:21:01;51.20;;;19.80;;
81697;SDS011;71109;52.514;5.708;2024-03-08T09:23:26;36.65;;;18.75;;
81697;SDS011;71109;52.514;5.708;2024-03-08T09:25:55;54.40;;;21.48;;
81697;SDS011;71109;52.514;5.708;2024-03-08T09:28:22;62.00;;;21.15;;
81697;SDS011;71109;52.514;5.708;2024-03-08T09:30:48;45.53;;;20.17;;
81697;SDS011;71109;52.514;5.708;2024-03-08T09:33:14;43.67;;;19.00;;
81697;SDS011;71109;52.514;5.708;2024-03-08T09:35:44;43.47;;;15.80;;
81697;SDS011;71109;52.514;5.708;2024-03-08T09:38:11;46.17;;;18.52;;
81697;SDS011;71109;52.514;5.708;2024-03-08T09:40:38;50.47;;;20.80;;
81697;SDS011;71109;52.514;5.708;2024-03-08T09:43:03;58.80;;;22.88;;
81697;SDS011;71109;52.514;5.708;2024-03-08T09:45:29;50.60;;;20.38;;
81697;SDS011;71109;52.514;5.708;2024-03-08T09:47:57;46.50;;;21.40;;
81697;SDS011;71109;52.514;5.708;2024-03-08T09:50:22;41.90;;;18.98;;
81697;SDS011;71109;52.514;5.708;2024-03-08T09:52:48;44.90;;;20.23;;
81697;SDS011;71109;52.514;5.708;2024-03-08T09:55:14;48.20;;;20.85;;
81697;SDS011;71109;52.514;5.708;2024-03-08T09:57:42;55.60;;;22.75;;
81697;SDS011;71109;52.514;5.708;2024-03-08T10:00:28;50.28;;;20.88;;
81697;SDS011;71109;52.514;5.708;2024-03-08T10:02:53;51.05;;;20.77;;
81697;SDS011;71109;52.514;5.708;2024-03-08T10:05:18;53.65;;;22.15;;
81697;SDS011;71109;52.514;5.708;2024-03-08T10:07:44;45.65;;;19.70;;
81697;SDS011;71109;52.514;5.708;2024-03-08T10:10:10;53.60;;;21.47;;
81697;SDS011;71109;52.514;5.708;2024-03-08T10:12:37;47.22;;;19.50;;
81697;SDS011;71109;52.514;5.708;2024-03-08T10:15:05;55.33;;;20.73;;
81697;SDS011;71109;52.514;5.708;2024-03-08T10:17:33;47.10;;;20.23;;
81697;SDS011;71109;52.514;5.708;2024-03-08T10:19:59;51.20;;;20.27;;
81697;SDS011;71109;52.514;5.708;2024-03-08T10:22:25;48.00;;;19.77;;
81697;SDS011;71109;52.514;5.708;2024-03-08T10:24:51;45.45;;;19.52;;
81697;SDS011;71109;52.514;5.708;2024-03-08T10:27:16;61.28;;;20.83;;
81697;SDS011;71109;52.514;5.708;2024-03-08T10:29:42;47.67;;;20.90;;
81697;SDS011;71109;52.514;5.708;2024-03-08T10:32:09;55.58;;;20.30;;
81697;SDS011;71109;52.514;5.708;2024-03-08T10:34:35;47.58;;;20.20;;
81697;SDS011;71109;52.514;5.708;2024-03-08T10:37:02;44.42;;;19.77;;
81697;SDS011;71109;52.514;5.708;2024-03-08T10:39:29;44.15;;;18.95;;
81697;SDS011;71109;52.514;5.708;2024-03-08T10:42:04;50.00;;;20.70;;
81697;SDS011;71109;52.514;5.708;2024-03-08T10:47:29;45.92;;;18.52;;
81697;SDS011;71109;52.514;5.708;2024-03-08T10:49:54;49.13;;;20.08;;
81697;SDS011;71109;52.514;5.708;2024-03-08T10:52:20;50.53;;;19.35;;
81697;SDS011;71109;52.514;5.708;2024-03-08T10:54:47;44.70;;;19.65;;
81697;SDS011;71109;52.514;5.708;2024-03-08T10:57:13;50.90;;;20.65;;
81697;SDS011;71109;52.514;5.708;2024-03-08T10:59:40;46.83;;;19.92;;
81697;SDS011;71109;52.514;5.708;2024-03-08T11:02:08;52.65;;;21.25;;
81697;SDS011;71109;52.514;5.708;2024-03-08T11:04:36;48.15;;;21.73;;
81697;SDS011;71109;52.514;5.708;2024-03-08T11:07:02;47.40;;;19.65;;
81697;SDS011;71109;52.514;5.708;2024-03-08T11:09:31;49.17;;;20.33;;
81697;SDS011;71109;52.514;5.708;2024-03-08T11:15:00;44.97;;;18.63;;
81697;SDS011;71109;52.514;5.708;2024-03-08T11:17:39;44.55;;;20.13;;
81697;SDS011;71109;52.514;5.708;2024-03-08T11:20:13;44.28;;;19.38;;
81697;SDS011;71109;52.514;5.708;2024-03-08T11:22:55;44.13;;;18.95;;
81697;SDS011;71109;52.514;5.708;2024-03-08T11:28:17;49.25;;;21.25;;
81697;SDS011;71109;52.514;5.708;2024-03-08T11:30:44;41.47;;;17.60;;
81697;SDS011;71109;52.514;5.708;2024-03-08T11:33:13;48.83;;;19.30;;
81697;SDS011;71109;52.514;5.708;2024-03-08T11:35:39;40.55;;;18.83;;
81697;SDS011;71109;52.514;5.708;2024-03-08T11:38:07;44.67;;;19.05;;
81697;SDS011;71109;52.514;5.708;2024-03-08T11:40:34;36.42;;;16.88;;
81697;SDS011;71109;52.514;5.708;2024-03-08T11:43:00;38.40;;;18.55;;
81697;SDS011;71109;52.514;5.708;2024-03-08T11:45:28;43.33;;;19.95;;
81697;SDS011;71109;52.514;5.708;2024-03-08T11:47:53;42.17;;;17.75;;
81697;SDS011;71109;52.514;5.708;2024-03-08T11:50:19;41.88;;;19.85;;
81697;SDS011;71109;52.514;5.708;2024-03-08T11:52:46;46.75;;;19.42;;
81697;SDS011;71109;52.514;5.708;2024-03-08T11:55:12;39.00;;;17.77;;
81697;SDS011;71109;52.514;5.708;2024-03-08T11:57:37;45.05;;;20.65;;
81697;SDS011;71109;52.514;5.708;2024-03-08T12:00:03;41.00;;;18.40;;
81697;SDS011;71109;52.514;5.708;2024-03-08T12:02:32;36.63;;;17.95;;
81697;SDS011;71109;52.514;5.708;2024-03-08T12:05:02;42.55;;;18.98;;
81697;SDS011;71109;52.514;5.708;2024-03-08T12:07:31;44.10;;;18.65;;
81697;SDS011;71109;52.514;5.708;2024-03-08T12:12:45;36.33;;;17.30;;
81697;SDS011;71109;52.514;5.708;2024-03-08T12:15:12;38.10;;;17.27;;
81697;SDS011;71109;52.514;5.708;2024-03-08T12:17:38;35.45;;;16.33;;
81697;SDS011;71109;52.514;5.708;2024-03-08T12:20:26;40.72;;;17.42;;
81697;SDS011;71109;52.514;5.708;2024-03-08T12:22:51;46.80;;;18.75;;
81697;SDS011;71109;52.514;5.708;2024-03-08T12:25:18;38.90;;;17.17;;
81697;SDS011;71109;52.514;5.708;2024-03-08T12:27:45;36.13;;;16.50;;
81697;SDS011;71109;52.514;5.708;2024-03-08T12:30:17;44.65;;;18.70;;
81697;SDS011;71109;52.514;5.708;2024-03-08T12:32:48;38.90;;;17.98;;
81697;SDS011;71109;52.514;5.708;2024-03-08T12:35:14;36.83;;;17.40;;
81697;SDS011;71109;52.514;5.708;2024-03-08T12:37:39;33.13;;;17.23;;
81697;SDS011;71109;52.514;5.708;2024-03-08T12:40:08;41.83;;;18.42;;
81697;SDS011;71109;52.514;5.708;2024-03-08T12:42:34;32.78;;;14.70;;
81697;SDS011;71109;52.514;5.708;2024-03-08T12:45:00;42.53;;;17.67;;
81697;SDS011;71109;52.514;5.708;2024-03-08T12:47:26;41.05;;;16.25;;
81697;SDS011;71109;52.514;5.708;2024-03-08T12:49:54;34.60;;;16.23;;
81697;SDS011;71109;52.514;5.708;2024-03-08T12:52:19;37.95;;;17.10;;
81697;SDS011;71109;52.514;5.708;2024-03-08T12:54:45;36.22;;;16.95;;
81697;SDS011;71109;52.514;5.708;2024-03-08T12:57:10;36.72;;;17.05;;
81697;SDS011;71109;52.514;5.708;2024-03-08T12:59:35;32.42;;;15.77;;
81697;SDS011;71109;52.514;5.708;2024-03-08T13:02:01;38.97;;;17.75;;
81697;SDS011;71109;52.514;5.708;2024-03-08T13:04:26;35.07;;;17.30;;
81697;SDS011;71109;52.514;5.708;2024-03-08T13:06:52;32.55;;;16.20;;
81697;SDS011;71109;52.514;5.708;2024-03-08T13:09:19;35.50;;;15.40;;
81697;SDS011;71109;52.514;5.708;2024-03-08T13:11:45;40.10;;;16.67;;
81697;SDS011;71109;52.514;5.708;2024-03-08T13:14:10;36.43;;;14.97;;
81697;SDS011;71109;52.514;5.708;2024-03-08T13:16:35;36.35;;;17.30;;
81697;SDS011;71109;52.514;5.708;2024-03-08T13:19:01;36.67;;;16.65;;
81697;SDS011;71109;52.514;5.708;2024-03-08T13:21:26;30.45;;;14.05;;
81697;SDS011;71109;52.514;5.708;2024-03-08T13:23:51;35.63;;;17.47;;
81697;SDS011;71109;52.514;5.708;2024-03-08T13:26:18;33.35;;;16.10;;
81697;SDS011;71109;52.514;5.708;2024-03-08T13:28:45;39.00;;;15.20;;
81697;SDS011;71109;52.514;5.708;2024-03-08T13:31:10;35.83;;;17.60;;
81697;SDS011;71109;52.514;5.708;2024-03-08T13:33:36;37.90;;;17.42;;
81697;SDS011;71109;52.514;5.708;2024-03-08T13:36:06;36.08;;;17.25;;
81697;SDS011;71109;52.514;5.708;2024-03-08T13:38:39;32.13;;;16.20;;
81697;SDS011;71109;52.514;5.708;2024-03-08T13:41:07;35.50;;;16.30;;
81697;SDS011;71109;52.514;5.708;2024-03-08T13:43:33;39.65;;;17.80;;
81697;SDS011;71109;52.514;5.708;2024-03-08T13:45:59;36.03;;;16.95;;
81697;SDS011;71109;52.514;5.708;2024-03-08T13:48:24;38.10;;;17.13;;
81697;SDS011;71109;52.514;5.708;2024-03-08T13:50:50;36.03;;;17.58;;
81697;SDS011;71109;52.514;5.708;2024-03-08T13:53:16;36.97;;;17.52;;
81697;SDS011;71109;52.514;5.708;2024-03-08T13:55:42;35.53;;;17.65;;
81697;SDS011;71109;52.514;5.708;2024-03-08T13:58:07;37.25;;;17.98;;
81697;SDS011;71109;52.514;5.708;2024-03-08T14:00:36;39.95;;;17.63;;
81697;SDS011;71109;52.514;5.708;2024-03-08T14:03:01;37.55;;;17.10;;
81697;SDS011;71109;52.514;5.708;2024-03-08T14:05:35;32.67;;;14.73;;
81697;SDS011;71109;52.514;5.708;2024-03-08T14:08:01;36.60;;;17.25;;
81697;SDS011;71109;52.514;5.708;2024-03-08T14:10:29;33.35;;;17.08;;
81697;SDS011;71109;52.514;5.708;2024-03-08T14:12:56;40.83;;;18.85;;
81697;SDS011;71109;52.514;5.708;2024-03-08T14:15:22;39.85;;;19.30;;
81697;SDS011;71109;52.514;5.708;2024-03-08T14:17:54;37.93;;;18.13;;
81697;SDS011;71109;52.514;5.708;2024-03-08T14:20:20;41.08;;;17.08;;
81697;SDS011;71109;52.514;5.708;2024-03-08T14:22:50;42.35;;;19.30;;
81697;SDS011;71109;52.514;5.708;2024-03-08T14:25:16;38.00;;;18.25;;
81697;SDS011;71109;52.514;5.708;2024-03-08T14:27:45;39.47;;;18.75;;
81697;SDS011;71109;52.514;5.708;2024-03-08T14:30:11;35.40;;;18.15;;